East Enosburg, Vermont
Current Conditions -  °F | °C
As of 6:15 AM on Thursday 23 Oct 2014 (Local Time) from KFSO Reporting Station
Overcast Overcast  
Wind Chill: 36°   Ceiling: 6000
Heat Index: 42°   Visibility: 10mi
Dew Point: 36°   Wind: 9mph
Humidity: 79%   Direction: 360°N
Pressure: 30.04"   Gusts: 20mph
Location:  44.8764°N, 72.758°W
Report Text: KFSO 231015Z AUTO 36008G17KT 10SM OVC060 06/02 A3004 RMK AO2 T00550022
Loading
Personal Weather Stations






























Interactive Weather Map New forecast layout! Learn more

10-Day Weather Forecast

Advertisements
Track Severe Weather on mobile